sensor_id;sensor_type;location;lat;lon;timestamp;pressure;altitude;pressure_sealevel;temperature;humidity
41862;BME280;27537;57.134;-2.136;2022-12-24T00:00:59;99661.63;;;6.82;100.00
41862;BME280;27537;57.134;-2.136;2022-12-24T00:03:26;99639.84;;;6.62;100.00
41862;BME280;27537;57.134;-2.136;2022-12-24T00:05:53;99647.09;;;6.76;100.00
41862;BME280;27537;57.134;-2.136;2022-12-24T00:08:19;99640.31;;;6.94;100.00
41862;BME280;27537;57.134;-2.136;2022-12-24T00:10:51;99636.44;;;6.82;100.00
41862;BME280;27537;57.134;-2.136;2022-12-24T00:13:18;99625.91;;;6.63;100.00
41862;BME280;27537;57.134;-2.136;2022-12-24T00:15:45;99607.66;;;6.65;100.00
41862;BME280;27537;57.134;-2.136;2022-12-24T00:18:12;99633.72;;;6.86;100.00
41862;BME280;27537;57.134;-2.136;2022-12-24T00:20:38;99623.13;;;6.90;100.00
41862;BME280;27537;57.134;-2.136;2022-12-24T00:23:05;99626.09;;;6.81;100.00
41862;BME280;27537;57.134;-2.136;2022-12-24T00:25:32;99613.09;;;6.81;100.00
41862;BME280;27537;57.134;-2.136;2022-12-24T00:27:59;99630.56;;;6.77;100.00
41862;BME280;27537;57.134;-2.136;2022-12-24T00:30:26;99624.88;;;6.90;100.00
41862;BME280;27537;57.134;-2.136;2022-12-24T00:32:52;99636.19;;;6.89;100.00
41862;BME280;27537;57.134;-2.136;2022-12-24T00:35:19;99645.22;;;7.02;100.00
41862;BME280;27537;57.134;-2.136;2022-12-24T00:37:47;99621.25;;;6.72;100.00
41862;BME280;27537;57.134;-2.136;2022-12-24T00:40:15;99636.34;;;6.86;100.00
41862;BME280;27537;57.134;-2.136;2022-12-24T00:42:42;99619.28;;;6.78;100.00
41862;BME280;27537;57.134;-2.136;2022-12-24T00:45:10;99632.50;;;6.72;100.00
41862;BME280;27537;57.134;-2.136;2022-12-24T00:47:37;99642.75;;;6.77;100.00
41862;BME280;27537;57.134;-2.136;2022-12-24T00:50:04;99633.13;;;6.79;100.00
41862;BME280;27537;57.134;-2.136;2022-12-24T00:52:31;99590.97;;;6.49;100.00
41862;BME280;27537;57.134;-2.136;2022-12-24T00:54:58;99618.06;;;6.65;100.00
41862;BME280;27537;57.134;-2.136;2022-12-24T00:57:25;99618.00;;;6.67;100.00
41862;BME280;27537;57.134;-2.136;2022-12-24T00:59:51;99606.44;;;6.52;100.00
41862;BME280;27537;57.134;-2.136;2022-12-24T01:02:18;99585.56;;;6.31;100.00
41862;BME280;27537;57.134;-2.136;2022-12-24T01:04:45;99622.78;;;6.77;100.00
41862;BME280;27537;57.134;-2.136;2022-12-24T01:07:30;99629.78;;;6.75;100.00
41862;BME280;27537;57.134;-2.136;2022-12-24T01:09:57;99649.94;;;6.48;100.00
41862;BME280;27537;57.134;-2.136;2022-12-24T01:12:24;99643.81;;;6.49;100.00
41862;BME280;27537;57.134;-2.136;2022-12-24T01:14:51;99593.31;;;6.09;100.00
41862;BME280;27537;57.134;-2.136;2022-12-24T01:17:18;99648.44;;;6.41;100.00
41862;BME280;27537;57.134;-2.136;2022-12-24T01:19:44;99629.13;;;6.24;100.00
41862;BME280;27537;57.134;-2.136;2022-12-24T01:22:11;99635.25;;;6.23;100.00
41862;BME280;27537;57.134;-2.136;2022-12-24T01:24:41;99592.91;;;5.96;100.00
41862;BME280;27537;57.134;-2.136;2022-12-24T01:27:08;99597.56;;;6.12;100.00
41862;BME280;27537;57.134;-2.136;2022-12-24T01:29:35;99619.41;;;6.30;100.00
41862;BME280;27537;57.134;-2.136;2022-12-24T01:32:02;99610.03;;;6.25;100.00
41862;BME280;27537;57.134;-2.136;2022-12-24T01:34:29;99603.34;;;6.20;100.00
41862;BME280;27537;57.134;-2.136;2022-12-24T01:36:55;99625.13;;;6.39;100.00
41862;BME280;27537;57.134;-2.136;2022-12-24T01:39:22;99621.53;;;6.42;100.00
41862;BME280;27537;57.134;-2.136;2022-12-24T01:41:49;99615.19;;;6.27;100.00
41862;BME280;27537;57.134;-2.136;2022-12-24T01:44:37;99626.63;;;6.21;100.00
41862;BME280;27537;57.134;-2.136;2022-12-24T01:49:44;99628.41;;;6.21;100.00
41862;BME280;27537;57.134;-2.136;2022-12-24T01:52:30;99631.56;;;6.29;100.00
41862;BME280;27537;57.134;-2.136;2022-12-24T01:55:07;99621.00;;;6.10;100.00
41862;BME280;27537;57.134;-2.136;2022-12-24T01:57:40;99628.75;;;6.12;100.00
41862;BME280;27537;57.134;-2.136;2022-12-24T02:00:11;99643.88;;;6.24;100.00
41862;BME280;27537;57.134;-2.136;2022-12-24T02:02:40;99641.19;;;6.27;100.00
41862;BME280;27537;57.134;-2.136;2022-12-24T02:05:13;99612.94;;;5.93;100.00
41862;BME280;27537;57.134;-2.136;2022-12-24T02:07:41;99646.94;;;6.12;100.00
41862;BME280;27537;57.134;-2.136;2022-12-24T02:10:11;99609.25;;;6.00;100.00
41862;BME280;27537;57.134;-2.136;2022-12-24T02:12:38;99611.41;;;6.12;100.00
41862;BME280;27537;57.134;-2.136;2022-12-24T02:15:08;99642.81;;;6.30;100.00
41862;BME280;27537;57.134;-2.136;2022-12-24T02:17:42;99633.50;;;6.24;100.00
41862;BME280;27537;57.134;-2.136;2022-12-24T02:31:49;99612.13;;;6.16;100.00
41862;BME280;27537;57.134;-2.136;2022-12-24T02:37:12;99598.72;;;6.26;100.00
41862;BME280;27537;57.134;-2.136;2022-12-24T02:40:05;99620.03;;;6.36;100.00
41862;BME280;27537;57.134;-2.136;2022-12-24T02:42:47;99613.38;;;6.05;100.00
41862;BME280;27537;57.134;-2.136;2022-12-24T02:45:20;99597.22;;;6.21;100.00
41862;BME280;27537;57.134;-2.136;2022-12-24T02:47:48;99603.09;;;6.26;100.00
41862;BME280;27537;57.134;-2.136;2022-12-24T02:50:17;99609.88;;;6.06;100.00
41862;BME280;27537;57.134;-2.136;2022-12-24T02:52:45;99607.91;;;6.13;100.00
41862;BME280;27537;57.134;-2.136;2022-12-24T03:03:28;99605.69;;;6.26;100.00
41862;BME280;27537;57.134;-2.136;2022-12-24T03:06:20;99585.00;;;6.23;100.00
41862;BME280;27537;57.134;-2.136;2022-12-24T03:08:59;99602.19;;;6.27;100.00
41862;BME280;27537;57.134;-2.136;2022-12-24T03:11:27;99589.47;;;5.96;100.00
41862;BME280;27537;57.134;-2.136;2022-12-24T03:13:57;99587.31;;;6.07;100.00
41862;BME280;27537;57.134;-2.136;2022-12-24T03:16:26;99597.28;;;5.96;100.00
41862;BME280;27537;57.134;-2.136;2022-12-24T03:18:54;99600.00;;;6.16;100.00
41862;BME280;27537;57.134;-2.136;2022-12-24T03:21:27;99611.59;;;6.30;100.00
41862;BME280;27537;57.134;-2.136;2022-12-24T03:23:55;99570.69;;;5.87;100.00
41862;BME280;27537;57.134;-2.136;2022-12-24T03:26:23;99619.81;;;6.19;100.00
41862;BME280;27537;57.134;-2.136;2022-12-24T03:28:51;99622.25;;;6.00;100.00
41862;BME280;27537;57.134;-2.136;2022-12-24T03:31:18;99591.88;;;5.77;100.00
41862;BME280;27537;57.134;-2.136;2022-12-24T03:33:46;99546.53;;;5.85;100.00
41862;BME280;27537;57.134;-2.136;2022-12-24T03:36:13;99573.78;;;5.99;100.00
41862;BME280;27537;57.134;-2.136;2022-12-24T03:38:40;99584.56;;;6.12;100.00
41862;BME280;27537;57.134;-2.136;2022-12-24T03:41:07;99587.22;;;6.10;100.00
41862;BME280;27537;57.134;-2.136;2022-12-24T03:43:33;99568.72;;;6.18;100.00
41862;BME280;27537;57.134;-2.136;2022-12-24T03:46:06;99571.94;;;6.24;100.00
41862;BME280;27537;57.134;-2.136;2022-12-24T03:48:34;99556.41;;;6.23;100.00
41862;BME280;27537;57.134;-2.136;2022-12-24T03:51:02;99590.19;;;6.23;100.00
41862;BME280;27537;57.134;-2.136;2022-12-24T03:53:29;99567.31;;;6.09;100.00
41862;BME280;27537;57.134;-2.136;2022-12-24T03:55:56;99568.25;;;6.08;100.00
41862;BME280;27537;57.134;-2.136;2022-12-24T03:58:22;99552.34;;;6.16;100.00
41862;BME280;27537;57.134;-2.136;2022-12-24T04:00:49;99550.78;;;6.12;100.00
41862;BME280;27537;57.134;-2.136;2022-12-24T04:03:17;99527.56;;;6.07;100.00
41862;BME280;27537;57.134;-2.136;2022-12-24T04:05:44;99546.66;;;6.06;100.00
41862;BME280;27537;57.134;-2.136;2022-12-24T04:08:11;99564.25;;;6.21;100.00
41862;BME280;27537;57.134;-2.136;2022-12-24T04:10:37;99550.72;;;6.35;100.00
41862;BME280;27537;57.134;-2.136;2022-12-24T04:13:04;99561.78;;;6.18;100.00
41862;BME280;27537;57.134;-2.136;2022-12-24T04:15:31;99565.22;;;6.19;100.00
41862;BME280;27537;57.134;-2.136;2022-12-24T04:17:58;99533.69;;;6.06;100.00
41862;BME280;27537;57.134;-2.136;2022-12-24T04:20:24;99542.00;;;6.14;100.00
41862;BME280;27537;57.134;-2.136;2022-12-24T04:22:51;99531.28;;;6.00;100.00
41862;BME280;27537;57.134;-2.136;2022-12-24T04:25:18;99562.47;;;6.23;100.00
41862;BME280;27537;57.134;-2.136;2022-12-24T04:27:45;99562.53;;;6.22;100.00
41862;BME280;27537;57.134;-2.136;2022-12-24T04:30:12;99551.66;;;6.34;100.00
41862;BME280;27537;57.134;-2.136;2022-12-24T04:32:38;99555.56;;;6.22;100.00
41862;BME280;27537;57.134;-2.136;2022-12-24T04:35:05;99560.16;;;6.16;100.00
41862;BME280;27537;57.134;-2.136;2022-12-24T04:37:33;99539.34;;;6.16;100.00
41862;BME280;27537;57.134;-2.136;2022-12-24T04:39:59;99555.56;;;6.22;100.00
41862;BME280;27537;57.134;-2.136;2022-12-24T04:42:26;99566.75;;;6.24;100.00
41862;BME280;27537;57.134;-2.136;2022-12-24T04:44:53;99537.16;;;6.29;100.00
41862;BME280;27537;57.134;-2.136;2022-12-24T04:47:19;99555.34;;;6.51;100.00
41862;BME280;27537;57.134;-2.136;2022-12-24T04:49:46;99512.63;;;6.12;100.00
41862;BME280;27537;57.134;-2.136;2022-12-24T04:52:12;99523.38;;;6.03;100.00
41862;BME280;27537;57.134;-2.136;2022-12-24T04:54:39;99544.94;;;6.29;100.00
41862;BME280;27537;57.134;-2.136;2022-12-24T04:57:06;99511.53;;;6.18;100.00
41862;BME280;27537;57.134;-2.136;2022-12-24T04:59:33;99521.22;;;6.36;100.00
41862;BME280;27537;57.134;-2.136;2022-12-24T05:01:59;99531.56;;;6.16;100.00
41862;BME280;27537;57.134;-2.136;2022-12-24T05:04:26;99514.50;;;6.08;100.00
41862;BME280;27537;57.134;-2.136;2022-12-24T05:06:53;99528.84;;;6.41;100.00
41862;BME280;27537;57.134;-2.136;2022-12-24T05:09:20;99523.47;;;6.23;100.00
41862;BME280;27537;57.134;-2.136;2022-12-24T05:11:46;99508.66;;;6.25;100.00
41862;BME280;27537;57.134;-2.136;2022-12-24T05:14:13;99466.16;;;6.04;100.00
41862;BME280;27537;57.134;-2.136;2022-12-24T05:16:40;99489.72;;;6.00;100.00
41862;BME280;27537;57.134;-2.136;2022-12-24T05:19:07;99492.22;;;6.03;100.00
41862;BME280;27537;57.134;-2.136;2022-12-24T05:21:33;99478.13;;;6.08;100.00
41862;BME280;27537;57.134;-2.136;2022-12-24T05:24:00;99518.69;;;6.35;100.00
41862;BME280;27537;57.134;-2.136;2022-12-24T05:26:48;99532.53;;;6.57;100.00
41862;BME280;27537;57.134;-2.136;2022-12-24T05:29:16;99540.44;;;6.54;100.00
41862;BME280;27537;57.134;-2.136;2022-12-24T05:31:43;99522.13;;;6.57;100.00
41862;BME280;27537;57.134;-2.136;2022-12-24T05:34:13;99533.53;;;6.53;100.00
41862;BME280;27537;57.134;-2.136;2022-12-24T05:36:40;99536.75;;;6.60;100.00
41862;BME280;27537;57.134;-2.136;2022-12-24T05:39:07;99531.81;;;6.54;100.00
41862;BME280;27537;57.134;-2.136;2022-12-24T05:41:41;99520.47;;;6.55;100.00
41862;BME280;27537;57.134;-2.136;2022-12-24T05:44:08;99505.53;;;6.60;100.00
41862;BME280;27537;57.134;-2.136;2022-12-24T05:46:35;99505.59;;;6.58;100.00
41862;BME280;27537;57.134;-2.136;2022-12-24T05:49:01;99505.81;;;6.74;100.00
41862;BME280;27537;57.134;-2.136;2022-12-24T05:51:28;99527.28;;;6.79;100.00
41862;BME280;27537;57.134;-2.136;2022-12-24T05:53:55;99496.78;;;6.62;100.00
41862;BME280;27537;57.134;-2.136;2022-12-24T05:56:23;99525.41;;;6.83;100.00
41862;BME280;27537;57.134;-2.136;2022-12-24T05:58:51;99492.19;;;6.47;100.00
41862;BME280;27537;57.134;-2.136;2022-12-24T06:01:20;99516.44;;;6.70;100.00
41862;BME280;27537;57.134;-2.136;2022-12-24T06:03:47;99455.41;;;6.14;100.00
41862;BME280;27537;57.134;-2.136;2022-12-24T06:06:21;99493.38;;;6.60;100.00
41862;BME280;27537;57.134;-2.136;2022-12-24T06:08:49;99510.75;;;6.60;100.00
41862;BME280;27537;57.134;-2.136;2022-12-24T06:11:18;99490.41;;;6.70;100.00
41862;BME280;27537;57.134;-2.136;2022-12-24T06:13:45;99475.47;;;6.75;100.00
41862;BME280;27537;57.134;-2.136;2022-12-24T06:16:15;99498.44;;;6.86;100.00
41862;BME280;27537;57.134;-2.136;2022-12-24T06:18:42;99497.84;;;6.99;100.00
41862;BME280;27537;57.134;-2.136;2022-12-24T06:21:10;99485.81;;;6.97;100.00
41862;BME280;27537;57.134;-2.136;2022-12-24T06:23:39;99482.47;;;6.93;100.00
41862;BME280;27537;57.134;-2.136;2022-12-24T06:26:08;99484.13;;;6.96;100.00
41862;BME280;27537;57.134;-2.136;2022-12-24T06:28:36;99441.44;;;6.79;100.00
41862;BME280;27537;57.134;-2.136;2022-12-24T06:31:04;99481.31;;;7.00;100.00
41862;BME280;27537;57.134;-2.136;2022-12-24T06:33:32;99465.31;;;6.89;100.00
41862;BME280;27537;57.134;-2.136;2022-12-24T06:36:00;99464.19;;;6.74;100.00
41862;BME280;27537;57.134;-2.136;2022-12-24T06:38:29;99442.72;;;6.69;100.00
41862;BME280;27537;57.134;-2.136;2022-12-24T06:40:56;99418.78;;;6.81;100.00
41862;BME280;27537;57.134;-2.136;2022-12-24T06:43:23;99429.28;;;6.80;100.00
41862;BME280;27537;57.134;-2.136;2022-12-24T06:45:51;99422.38;;;6.79;100.00
41862;BME280;27537;57.134;-2.136;2022-12-24T06:48:18;99444.56;;;6.88;100.00
41862;BME280;27537;57.134;-2.136;2022-12-24T06:50:45;99430.72;;;6.87;100.00
41862;BME280;27537;57.134;-2.136;2022-12-24T06:53:12;99437.00;;;6.81;100.00
41862;BME280;27537;57.134;-2.136;2022-12-24T06:55:39;99432.22;;;6.93;100.00
41862;BME280;27537;57.134;-2.136;2022-12-24T06:58:05;99447.84;;;7.12;100.00
41862;BME280;27537;57.134;-2.136;2022-12-24T07:00:32;99441.75;;;6.92;100.00
41862;BME280;27537;57.134;-2.136;2022-12-24T07:02:59;99448.78;;;7.11;100.00
41862;BME280;27537;57.134;-2.136;2022-12-24T07:05:26;99424.88;;;6.82;100.00
41862;BME280;27537;57.134;-2.136;2022-12-24T07:07:53;99431.69;;;7.05;100.00
41862;BME280;27537;57.134;-2.136;2022-12-24T07:10:20;99454.50;;;6.98;100.00
41862;BME280;27537;57.134;-2.136;2022-12-24T07:12:47;99417.97;;;6.81;100.00
41862;BME280;27537;57.134;-2.136;2022-12-24T07:15:14;99418.53;;;6.88;100.00
41862;BME280;27537;57.134;-2.136;2022-12-24T07:17:41;99426.94;;;7.13;100.00
41862;BME280;27537;57.134;-2.136;2022-12-24T07:20:11;99427.66;;;6.98;100.00
41862;BME280;27537;57.134;-2.136;2022-12-24T07:22:39;99415.41;;;7.00;100.00
41862;BME280;27537;57.134;-2.136;2022-12-24T07:25:06;99443.44;;;6.93;100.00
41862;BME280;27537;57.134;-2.136;2022-12-24T07:27:33;99413.47;;;6.84;100.00
41862;BME280;27537;57.134;-2.136;2022-12-24T07:30:00;99438.22;;;7.14;100.00
41862;BME280;27537;57.134;-2.136;2022-12-24T07:32:26;99438.88;;;7.19;100.00
41862;BME280;27537;57.134;-2.136;2022-12-24T07:34:53;99402.81;;;6.91;100.00
41862;BME280;27537;57.134;-2.136;2022-12-24T07:37:20;99395.84;;;6.91;100.00
41862;BME280;27537;57.134;-2.136;2022-12-24T07:39:46;99430.66;;;7.28;100.00
41862;BME280;27537;57.134;-2.136;2022-12-24T07:42:13;99395.16;;;7.07;100.00
41862;BME280;27537;57.134;-2.136;2022-12-24T07:44:40;99433.22;;;7.09;100.00
41862;BME280;27537;57.134;-2.136;2022-12-24T07:47:06;99419.22;;;7.12;100.00
41862;BME280;27537;57.134;-2.136;2022-12-24T07:49:33;99390.31;;;7.18;100.00
41862;BME280;27537;57.134;-2.136;2022-12-24T07:52:02;99403.66;;;6.91;100.00
41862;BME280;27537;57.134;-2.136;2022-12-24T07:54:29;99417.69;;;7.27;100.00
41862;BME280;27537;57.134;-2.136;2022-12-24T07:56:56;99396.81;;;7.28;100.00
41862;BME280;27537;57.134;-2.136;2022-12-24T07:59:23;99425.09;;;7.55;100.00
41862;BME280;27537;57.134;-2.136;2022-12-24T08:01:49;99400.88;;;7.34;100.00
41862;BME280;27537;57.134;-2.136;2022-12-24T08:04:16;99383.66;;;7.31;100.00
41862;BME280;27537;57.134;-2.136;2022-12-24T08:06:43;99393.91;;;7.53;100.00
41862;BME280;27537;57.134;-2.136;2022-12-24T08:09:10;99381.03;;;7.50;100.00
41862;BME280;27537;57.134;-2.136;2022-12-24T08:11:36;99384.13;;;7.58;100.00
41862;BME280;27537;57.134;-2.136;2022-12-24T08:14:03;99427.47;;;7.78;100.00
41862;BME280;27537;57.134;-2.136;2022-12-24T08:16:30;99435.16;;;8.18;100.00
41862;BME280;27537;57.134;-2.136;2022-12-24T08:18:57;99434.31;;;8.17;100.00
41862;BME280;27537;57.134;-2.136;2022-12-24T08:21:23;99396.84;;;7.84;100.00
41862;BME280;27537;57.134;-2.136;2022-12-24T08:23:50;99444.97;;;8.13;100.00
41862;BME280;27537;57.134;-2.136;2022-12-24T08:26:17;99419.53;;;7.82;100.00
41862;BME280;27537;57.134;-2.136;2022-12-24T08:28:43;99443.03;;;7.80;100.00
41862;BME280;27537;57.134;-2.136;2022-12-24T08:31:10;99413.34;;;7.65;100.00
41862;BME280;27537;57.134;-2.136;2022-12-24T08:33:37;99421.16;;;7.65;100.00
41862;BME280;27537;57.134;-2.136;2022-12-24T08:36:04;99431.34;;;7.70;100.00
41862;BME280;27537;57.134;-2.136;2022-12-24T08:38:31;99427.72;;;7.74;100.00
41862;BME280;27537;57.134;-2.136;2022-12-24T08:40:58;99467.63;;;7.93;100.00
41862;BME280;27537;57.134;-2.136;2022-12-24T08:43:25;99455.94;;;7.64;100.00
41862;BME280;27537;57.134;-2.136;2022-12-24T08:45:52;99452.91;;;7.73;100.00
41862;BME280;27537;57.134;-2.136;2022-12-24T08:48:19;99474.44;;;7.77;100.00
41862;BME280;27537;57.134;-2.136;2022-12-24T08:50:46;99444.31;;;7.52;100.00
41862;BME280;27537;57.134;-2.136;2022-12-24T08:53:13;99433.88;;;7.52;100.00
41862;BME280;27537;57.134;-2.136;2022-12-24T08:55:39;99442.28;;;7.59;100.00
41862;BME280;27537;57.134;-2.136;2022-12-24T08:58:06;99430.00;;;7.61;100.00
41862;BME280;27537;57.134;-2.136;2022-12-24T09:00:33;99449.66;;;7.68;100.00
41862;BME280;27537;57.134;-2.136;2022-12-24T09:03:00;99433.38;;;7.63;100.00
41862;BME280;27537;57.134;-2.136;2022-12-24T09:05:27;99425.09;;;7.55;100.00
41862;BME280;27537;57.134;-2.136;2022-12-24T09:07:54;99450.66;;;7.66;100.00
41862;BME280;27537;57.134;-2.136;2022-12-24T09:10:21;99449.66;;;7.68;100.00
41862;BME280;27537;57.134;-2.136;2022-12-24T09:12:48;99443.19;;;7.58;100.00
41862;BME280;27537;57.134;-2.136;2022-12-24T09:15:16;99454.03;;;7.68;100.00
41862;BME280;27537;57.134;-2.136;2022-12-24T09:17:43;99431.22;;;7.54;100.00
41862;BME280;27537;57.134;-2.136;2022-12-24T09:20:10;99433.69;;;7.57;100.00
41862;BME280;27537;57.134;-2.136;2022-12-24T09:22:38;99446.28;;;7.66;100.00
41862;BME280;27537;57.134;-2.136;2022-12-24T09:25:05;99481.63;;;7.53;100.00
41862;BME280;27537;57.134;-2.136;2022-12-24T09:27:33;99456.81;;;7.25;100.00
41862;BME280;27537;57.134;-2.136;2022-12-24T09:30:00;99461.53;;;7.36;100.00
41862;BME280;27537;57.134;-2.136;2022-12-24T09:32:26;99468.88;;;7.47;100.00
41862;BME280;27537;57.134;-2.136;2022-12-24T09:34:53;99468.22;;;7.22;100.00
41862;BME280;27537;57.134;-2.136;2022-12-24T09:37:20;99456.75;;;7.27;100.00
41862;BME280;27537;57.134;-2.136;2022-12-24T09:39:47;99423.00;;;7.04;100.00
41862;BME280;27537;57.134;-2.136;2022-12-24T09:42:43;99467.19;;;7.46;100.00
41862;BME280;27537;57.134;-2.136;2022-12-24T09:47:52;99427.25;;;7.07;100.00
41862;BME280;27537;57.134;-2.136;2022-12-24T09:52:54;99463.03;;;7.41;100.00
41862;BME280;27537;57.134;-2.136;2022-12-24T09:55:43;99458.03;;;7.37;100.00
41862;BME280;27537;57.134;-2.136;2022-12-24T09:58:19;99438.06;;;7.17;100.00
41862;BME280;27537;57.134;-2.136;2022-12-24T10:00:47;99508.09;;;7.63;100.00
41862;BME280;27537;57.134;-2.136;2022-12-24T10:03:16;99515.22;;;7.59;100.00
41862;BME280;27537;57.134;-2.136;2022-12-24T10:05:54;99505.84;;;7.55;100.00
41862;BME280;27537;57.134;-2.136;2022-12-24T10:11:11;99489.50;;;7.51;100.00
41862;BME280;27537;57.134;-2.136;2022-12-24T10:13:57;99503.91;;;7.39;100.00
41862;BME280;27537;57.134;-2.136;2022-12-24T10:24:31;99471.91;;;7.37;100.00
41862;BME280;27537;57.134;-2.136;2022-12-24T10:27:14;99490.41;;;7.50;100.00
41862;BME280;27537;57.134;-2.136;2022-12-24T10:29:45;99481.97;;;7.45;100.00
41862;BME280;27537;57.134;-2.136;2022-12-24T10:32:25;99512.34;;;7.65;100.00
41862;BME280;27537;57.134;-2.136;2022-12-24T10:37:28;99503.66;;;7.65;100.00
41862;BME280;27537;57.134;-2.136;2022-12-24T10:39:59;99467.47;;;7.39;100.00
41862;BME280;27537;57.134;-2.136;2022-12-24T10:42:41;99474.38;;;7.40;100.00
41862;BME280;27537;57.134;-2.136;2022-12-24T10:45:20;99437.59;;;7.09;100.00
41862;BME280;27537;57.134;-2.136;2022-12-24T10:47:49;99468.53;;;7.35;100.00
41862;BME280;27537;57.134;-2.136;2022-12-24T10:50:27;99481.41;;;7.38;100.00
41862;BME280;27537;57.134;-2.136;2022-12-24T10:53:03;99448.16;;;7.25;100.00
41862;BME280;27537;57.134;-2.136;2022-12-24T10:55:32;99484.44;;;7.48;100.00
41862;BME280;27537;57.134;-2.136;2022-12-24T10:58:10;99509.88;;;7.62;100.00
41862;BME280;27537;57.134;-2.136;2022-12-24T11:00:39;99465.63;;;7.41;100.00
41862;BME280;27537;57.134;-2.136;2022-12-24T11:05:39;99457.66;;;7.26;100.00
41862;BME280;27537;57.134;-2.136;2022-12-24T11:10:41;99432.50;;;7.06;100.00
41862;BME280;27537;57.134;-2.136;2022-12-24T11:13:51;99493.03;;;7.50;100.00
41862;BME280;27537;57.134;-2.136;2022-12-24T11:18:57;99474.03;;;7.28;100.00
41862;BME280;27537;57.134;-2.136;2022-12-24T11:21:27;99469.34;;;7.36;100.00
41862;BME280;27537;57.134;-2.136;2022-12-24T11:23:57;99483.72;;;7.45;100.00
41862;BME280;27537;57.134;-2.136;2022-12-24T11:26:27;99507.38;;;7.59;100.00
41862;BME280;27537;57.134;-2.136;2022-12-24T11:29:22;99508.59;;;7.52;100.00
41862;BME280;27537;57.134;-2.136;2022-12-24T11:31:50;99517.13;;;7.74;100.00
41862;BME280;27537;57.134;-2.136;2022-12-24T11:34:29;99515.22;;;7.78;100.00
41862;BME280;27537;57.134;-2.136;2022-12-24T11:37:17;99503.59;;;7.85;100.00
41862;BME280;27537;57.134;-2.136;2022-12-24T11:39:49;99487.84;;;7.69;100.00
41862;BME280;27537;57.134;-2.136;2022-12-24T11:42:32;99450.00;;;7.41;100.00
41862;BME280;27537;57.134;-2.136;2022-12-24T11:45:03;99509.53;;;7.89;100.00
41862;BME280;27537;57.134;-2.136;2022-12-24T11:47:39;99474.94;;;7.66;100.00
41862;BME280;27537;57.134;-2.136;2022-12-24T11:50:30;99500.81;;;7.90;100.00
41862;BME280;27537;57.134;-2.136;2022-12-24T11:56:35;99499.53;;;7.79;100.00
41862;BME280;27537;57.134;-2.136;2022-12-24T12:04:33;99504.50;;;7.84;100.00
41862;BME280;27537;57.134;-2.136;2022-12-24T12:09:31;99479.06;;;7.32;100.00
41862;BME280;27537;57.134;-2.136;2022-12-24T12:12:14;99490.78;;;7.43;100.00
41862;BME280;27537;57.134;-2.136;2022-12-24T12:14:45;99485.38;;;7.47;100.00
41862;BME280;27537;57.134;-2.136;2022-12-24T12:17:51;99474.31;;;7.61;100.00
41862;BME280;27537;57.134;-2.136;2022-12-24T12:20:33;99512.50;;;7.81;100.00
41862;BME280;27537;57.134;-2.136;2022-12-24T12:25:54;99461.06;;;7.47;100.00
41862;BME280;27537;57.134;-2.136;2022-12-24T12:31:10;99485.09;;;7.72;100.00
41862;BME280;27537;57.134;-2.136;2022-12-24T12:36:22;99533.63;;;7.94;100.00
41862;BME280;27537;57.134;-2.136;2022-12-24T12:38:52;99510.28;;;7.91;100.00
41862;BME280;27537;57.134;-2.136;2022-12-24T12:41:38;99487.66;;;7.91;100.00
41862;BME280;27537;57.134;-2.136;2022-12-24T12:52:20;99518.06;;;8.48;100.00
41862;BME280;27537;57.134;-2.136;2022-12-24T12:58:03;99479.81;;;8.48;100.00
41862;BME280;27537;57.134;-2.136;2022-12-24T13:00:35;99491.44;;;8.41;100.00
41862;BME280;27537;57.134;-2.136;2022-12-24T13:03:27;99514.97;;;8.76;100.00
41862;BME280;27537;57.134;-2.136;2022-12-24T13:22:15;99512.88;;;8.65;100.00
41862;BME280;27537;57.134;-2.136;2022-12-24T13:24:50;99485.25;;;8.61;100.00
41862;BME280;27537;57.134;-2.136;2022-12-24T13:27:23;99452.59;;;8.35;100.00
41862;BME280;27537;57.134;-2.136;2022-12-24T13:32:53;99473.59;;;8.14;100.00
41862;BME280;27537;57.134;-2.136;2022-12-24T13:37:48;99454.44;;;8.33;100.00
41862;BME280;27537;57.134;-2.136;2022-12-24T13:40:24;99479.72;;;8.67;100.00
41862;BME280;27537;57.134;-2.136;2022-12-24T13:53:43;99420.41;;;7.99;100.00
41862;BME280;27537;57.134;-2.136;2022-12-24T13:58:44;99454.34;;;8.17;100.00
41862;BME280;27537;57.134;-2.136;2022-12-24T14:01:16;99479.97;;;8.26;100.00
41862;BME280;27537;57.134;-2.136;2022-12-24T14:03:45;99462.00;;;8.20;100.00
41862;BME280;27537;57.134;-2.136;2022-12-24T14:06:37;99462.72;;;8.24;100.00
41862;BME280;27537;57.134;-2.136;2022-12-24T14:09:13;99420.06;;;7.88;100.00
41862;BME280;27537;57.134;-2.136;2022-12-24T14:14:33;99439.47;;;7.83;100.00
41862;BME280;27537;57.134;-2.136;2022-12-24T14:17:02;99453.59;;;7.77;100.00
41862;BME280;27537;57.134;-2.136;2022-12-24T14:19:41;99472.16;;;8.07;100.00
41862;BME280;27537;57.134;-2.136;2022-12-24T14:25:14;99430.84;;;7.80;100.00
41862;BME280;27537;57.134;-2.136;2022-12-24T14:27:52;99432.63;;;7.80;100.00
41862;BME280;27537;57.134;-2.136;2022-12-24T14:30:22;99461.38;;;8.15;100.00
41862;BME280;27537;57.134;-2.136;2022-12-24T14:32:52;99460.34;;;8.00;100.00
41862;BME280;27537;57.134;-2.136;2022-12-24T14:35:22;99474.88;;;8.23;100.00
41862;BME280;27537;57.134;-2.136;2022-12-24T14:38:05;99434.66;;;7.92;100.00
41862;BME280;27537;57.134;-2.136;2022-12-24T14:40:34;99475.13;;;8.18;100.00
41862;BME280;27537;57.134;-2.136;2022-12-24T14:46:02;99427.19;;;7.85;100.00
41862;BME280;27537;57.134;-2.136;2022-12-24T14:48:40;99443.41;;;8.09;100.00
41862;BME280;27537;57.134;-2.136;2022-12-24T14:54:25;99460.25;;;8.21;100.00
41862;BME280;27537;57.134;-2.136;2022-12-24T14:57:12;99446.06;;;8.26;100.00
41862;BME280;27537;57.134;-2.136;2022-12-24T14:59:59;99442.81;;;8.21;100.00
41862;BME280;27537;57.134;-2.136;2022-12-24T15:02:49;99427.94;;;8.06;100.00
41862;BME280;27537;57.134;-2.136;2022-12-24T15:05:19;99462.34;;;8.12;100.00
41862;BME280;27537;57.134;-2.136;2022-12-24T15:10:27;99471.31;;;8.07;100.00
41862;BME280;27537;57.134;-2.136;2022-12-24T15:12:56;99413.16;;;7.51;100.00
41862;BME280;27537;57.134;-2.136;2022-12-24T15:15:23;99420.41;;;7.80;100.00
41862;BME280;27537;57.134;-2.136;2022-12-24T15:17:51;99427.94;;;8.06;100.00